Time;durP1;ratioP1;P1;durP2;ratioP2;P2;SDS_P1;SDS_P2;PMS_P1;PMS_P2;Temp;Humidity;BMP_temperature;BMP_pressure;BME280_temperature;BME280_humidity;BME280_pressure;Samples;Min_cycle;Max_cycle;Signal;HPM_P1;HPM_P2
2024/02/02 00:01:58;;;;;;;7.10;6.43;;;6.50;99.90;;;;;;5037086;28;20534;-79
2024/02/02 00:04:26;;;;;;;6.67;6.07;;;6.50;99.90;;;;;;5035580;28;20457;-77
2024/02/02 00:06:54;;;;;;;6.07;5.43;;;6.60;99.90;;;;;;5033799;28;20455;-81
2024/02/02 00:09:22;;;;;;;6.97;6.37;;;6.70;99.90;;;;;;5035980;28;20535;-77
2024/02/02 00:11:51;;;;;;;6.30;5.73;;;6.70;99.90;;;;;;5041418;28;20487;-79
2024/02/02 00:14:21;;;;;;;7.40;6.70;;;6.70;99.90;;;;;;5041821;28;20460;-76
2024/02/02 00:16:49;;;;;;;7.03;6.37;;;6.60;99.90;;;;;;5037341;28;20464;-81
2024/02/02 00:19:18;;;;;;;6.43;6.00;;;6.70;99.90;;;;;;5038698;28;20451;-81
2024/02/02 00:21:46;;;;;;;6.23;5.70;;;6.70;99.90;;;;;;5038717;28;20452;-77
2024/02/02 00:24:15;;;;;;;9.17;6.70;;;6.60;99.90;;;;;;5041506;28;20468;-78
2024/02/02 00:26:43;;;;;;;6.40;5.90;;;6.60;99.90;;;;;;5035628;28;20456;-76
2024/02/02 00:29:12;;;;;;;6.13;5.70;;;6.60;99.90;;;;;;5035207;28;20464;-78
2024/02/02 00:31:42;;;;;;;7.53;5.83;;;6.70;99.90;;;;;;5039262;28;21028;-78
2024/02/02 00:34:10;;;;;;;7.03;6.43;;;6.70;99.90;;;;;;5041407;28;20475;-77
2024/02/02 00:36:38;;;;;;;8.63;7.60;;;6.70;99.90;;;;;;5038204;28;20459;-78
2024/02/02 00:39:07;;;;;;;10.43;8.50;;;6.60;99.90;;;;;;5042121;28;20464;-79
2024/02/02 00:41:35;;;;;;;8.00;7.30;;;6.60;99.90;;;;;;5040735;28;20555;-80
2024/02/02 00:44:04;;;;;;;10.03;9.03;;;6.60;99.90;;;;;;5042499;28;20475;-79
2024/02/02 00:46:32;;;;;;;7.30;6.70;;;6.70;99.90;;;;;;5036721;28;20460;-78
2024/02/02 00:49:03;;;;;;;8.93;8.00;;;6.60;99.90;;;;;;5038327;28;20468;-78
2024/02/02 00:51:31;;;;;;;6.73;6.13;;;6.60;99.90;;;;;;5038786;28;20830;-78
2024/02/02 00:53:59;;;;;;;8.67;7.87;;;6.60;99.90;;;;;;5037007;28;20686;-79
2024/02/02 00:56:28;;;;;;;12.53;9.03;;;6.60;99.90;;;;;;5038212;28;20977;-77
2024/02/02 00:58:56;;;;;;;10.23;8.40;;;6.60;99.90;;;;;;5037984;28;20466;-78
2024/02/02 01:01:24;;;;;;;7.80;7.10;;;6.60;99.90;;;;;;5041595;28;20451;-78
2024/02/02 01:03:52;;;;;;;7.10;6.47;;;6.60;99.90;;;;;;5038165;28;20542;-79
2024/02/02 01:06:22;;;;;;;7.00;6.30;;;6.70;99.90;;;;;;5043227;28;20568;-78
2024/02/02 01:08:51;;;;;;;16.37;8.33;;;6.70;99.90;;;;;;5038360;28;20464;-78
2024/02/02 01:11:19;;;;;;;8.70;7.23;;;6.70;99.90;;;;;;5038568;28;20928;-81
2024/02/02 01:13:48;;;;;;;9.73;6.17;;;6.70;99.90;;;;;;5041734;28;20579;-76
2024/02/02 01:16:16;;;;;;;12.37;7.70;;;6.70;70.30;;;;;;5042271;28;20547;-80
2024/02/02 01:18:45;;;;;;;7.33;6.03;;;6.60;50.70;;;;;;5042767;28;20988;-79
2024/02/02 01:21:13;;;;;;;7.10;6.43;;;6.60;38.00;;;;;;5034351;28;20465;-79
2024/02/02 01:23:45;;;;;;;9.63;6.30;;;6.60;1.00;;;;;;5041220;28;21020;-80
2024/02/02 01:26:13;;;;;;;4.23;3.87;;;6.60;1.00;;;;;;5043592;28;20452;-77
2024/02/02 01:28:42;;;;;;;9.37;4.27;;;6.70;1.00;;;;;;5040231;28;20930;-77
2024/02/02 01:31:10;;;;;;;7.03;4.60;;;6.70;1.00;;;;;;5044714;28;20461;-80
2024/02/02 01:33:38;;;;;;;5.00;4.50;;;6.70;1.00;;;;;;5044025;28;20511;-77
2024/02/02 01:36:07;;;;;;;5.80;4.20;;;6.70;1.00;;;;;;5041845;28;20444;-80
2024/02/02 01:38:36;;;;;;;8.70;4.90;;;6.60;1.00;;;;;;5042447;28;20457;-80
2024/02/02 01:41:05;;;;;;;6.30;4.57;;;6.70;1.00;;;;;;5043673;28;20835;-78
2024/02/02 01:43:34;;;;;;;3.80;3.40;;;6.70;1.00;;;;;;5046860;28;20472;-82
2024/02/02 01:46:02;;;;;;;6.10;4.83;;;6.70;1.00;;;;;;5041791;28;20471;-78
2024/02/02 01:48:30;;;;;;;6.43;4.60;;;6.70;1.00;;;;;;5043941;28;20454;-78
2024/02/02 01:50:59;;;;;;;5.67;3.70;;;6.50;1.00;;;;;;5039892;28;20463;-78
2024/02/02 01:53:27;;;;;;;4.73;3.30;;;6.60;1.00;;;;;;5041797;28;20553;-78
2024/02/02 01:55:55;;;;;;;3.33;3.00;;;6.70;1.00;;;;;;5040829;28;20480;-79
2024/02/02 01:58:26;;;;;;;4.30;3.37;;;6.70;1.00;;;;;;5040323;28;20449;-80
2024/02/02 02:00:54;;;;;;;5.40;3.70;;;6.70;1.00;;;;;;5043909;28;20930;-80
2024/02/02 02:03:23;;;;;;;3.63;3.13;;;6.70;1.00;;;;;;5039420;28;20540;-78
2024/02/02 02:05:51;;;;;;;5.13;4.50;;;6.70;1.00;;;;;;5040197;28;20464;-78
2024/02/02 02:08:19;;;;;;;2.70;2.60;;;6.70;1.00;;;;;;5038947;28;20461;-77
2024/02/02 02:10:48;;;;;;;6.20;3.53;;;6.60;1.00;;;;;;5043196;28;20536;-81
2024/02/02 02:13:16;;;;;;;4.47;4.10;;;6.60;1.00;;;;;;5037428;28;20570;-80
2024/02/02 02:15:46;;;;;;;3.70;3.37;;;6.60;1.00;;;;;;5040246;28;20487;-79
2024/02/02 02:18:15;;;;;;;6.60;5.47;;;6.40;1.00;;;;;;5067496;28;20456;-77
2024/02/02 02:20:45;;;;;;;9.13;5.80;;;6.40;1.00;;;;;;5033928;28;21946;-79
2024/02/02 02:23:14;;;;;;;8.80;6.43;;;6.40;1.00;;;;;;5031779;28;21030;-79
2024/02/02 02:25:43;;;;;;;8.23;4.10;;;6.40;1.00;;;;;;5044039;28;20482;-80
2024/02/02 02:28:11;;;;;;;4.87;4.33;;;6.50;1.00;;;;;;5035249;28;20452;-79
2024/02/02 02:30:40;;;;;;;4.80;4.30;;;6.50;1.00;;;;;;5041797;28;20452;-79
2024/02/02 02:33:08;;;;;;;8.13;5.10;;;6.50;1.00;;;;;;5039400;28;21158;-78
2024/02/02 02:35:37;;;;;;;5.33;4.13;;;6.40;1.00;;;;;;5040006;28;20464;-79
2024/02/02 02:38:05;;;;;;;5.53;4.37;;;6.40;1.00;;;;;;5038733;28;20451;-78
2024/02/02 02:40:36;;;;;;;4.70;4.10;;;6.40;1.00;;;;;;5034234;28;20522;-79
2024/02/02 02:43:05;;;;;;;4.30;3.57;;;6.40;1.00;;;;;;5037813;28;20472;-78
2024/02/02 02:45:33;;;;;;;9.27;4.03;;;6.40;1.00;;;;;;5036591;28;20463;-78
2024/02/02 02:48:02;;;;;;;5.27;3.50;;;6.30;1.00;;;;;;5037515;28;21000;-80
2024/02/02 02:50:30;;;;;;;7.47;4.27;;;6.30;1.00;;;;;;5038450;28;20463;-78
2024/02/02 02:52:59;;;;;;;6.40;4.07;;;6.40;1.00;;;;;;5033904;28;20474;-80
2024/02/02 02:55:27;;;;;;;3.53;3.23;;;6.40;1.00;;;;;;5035127;28;20457;-78
2024/02/02 02:57:57;;;;;;;4.27;3.73;;;6.30;1.00;;;;;;5038230;28;20487;-81
2024/02/02 03:00:28;;;;;;;8.33;4.00;;;6.40;1.00;;;;;;5036722;28;20505;-80
2024/02/02 03:02:56;;;;;;;5.77;3.17;;;6.40;1.00;;;;;;5039958;28;20471;-80
2024/02/02 03:05:26;;;;;;;3.70;3.40;;;6.50;1.00;;;;;;5039585;28;20462;-79
2024/02/02 03:07:55;;;;;;;5.60;4.40;;;6.50;1.00;;;;;;5033489;28;20455;-79
2024/02/02 03:10:25;;;;;;;4.47;4.10;;;6.50;1.00;;;;;;5032653;28;20464;-80
2024/02/02 03:12:53;;;;;;;4.03;3.70;;;6.50;11.30;;;;;;5036502;28;20475;-77
2024/02/02 03:15:23;;;;;;;4.03;3.73;;;6.50;12.60;;;;;;5035088;28;20937;-80
2024/02/02 03:17:51;;;;;;;3.67;3.47;;;6.40;55.10;;;;;;5034779;28;20460;-82
2024/02/02 03:20:20;;;;;;;4.17;3.77;;;6.40;51.60;;;;;;5036994;28;20716;-78
2024/02/02 03:22:50;;;;;;;5.43;4.57;;;6.40;59.60;;;;;;5033042;28;20508;-81
2024/02/02 03:25:18;;;;;;;4.30;4.00;;;6.40;89.30;;;;;;5034631;28;20960;-78
2024/02/02 03:27:46;;;;;;;4.60;4.20;;;6.40;90.30;;;;;;5034229;28;20459;-80
2024/02/02 03:30:15;;;;;;;4.30;4.00;;;6.30;40.50;;;;;;5037308;28;20459;-77
2024/02/02 03:32:45;;;;;;;4.40;3.90;;;6.30;92.90;;;;;;5038184;28;20500;-78
2024/02/02 03:35:14;;;;;;;5.30;3.60;;;6.30;58.90;;;;;;5039616;28;20531;-78
2024/02/02 03:37:42;;;;;;;4.33;3.47;;;6.30;46.90;;;;;;5035422;28;20579;-78
2024/02/02 03:40:11;;;;;;;4.23;3.90;;;6.40;21.70;;;;;;5035293;28;20463;-78
2024/02/02 03:42:40;;;;;;;4.63;4.07;;;6.40;58.60;;;;;;5030335;28;21191;-82
2024/02/02 03:45:09;;;;;;;4.70;4.40;;;6.50;99.90;;;;;;5029765;28;20542;-79
2024/02/02 03:47:37;;;;;;;9.07;4.73;;;6.60;99.90;;;;;;5033723;28;21167;-79
2024/02/02 03:50:07;;;;;;;4.37;4.00;;;6.70;99.90;;;;;;5031634;28;20464;-78
2024/02/02 03:52:36;;;;;;;4.47;4.10;;;6.70;99.90;;;;;;5037561;28;20486;-77
2024/02/02 03:55:05;;;;;;;4.73;4.33;;;6.70;99.90;;;;;;5033691;28;20488;-79
2024/02/02 03:57:33;;;;;;;5.27;4.77;;;6.70;99.90;;;;;;5034915;28;20458;-78
2024/02/02 04:00:04;;;;;;;6.50;4.20;;;6.70;99.90;;;;;;5036698;28;20465;-82
2024/02/02 04:02:32;;;;;;;5.70;4.20;;;6.70;99.90;;;;;;5026161;28;22054;-81
2024/02/02 04:05:00;;;;;;;3.70;3.50;;;6.80;99.90;;;;;;5035242;28;20575;-77
2024/02/02 04:07:31;;;;;;;5.67;4.30;;;6.70;99.90;;;;;;5033190;28;20591;-78
2024/02/02 04:09:59;;;;;;;6.93;4.57;;;6.80;99.90;;;;;;5034344;28;20456;-77
2024/02/02 04:12:27;;;;;;;5.60;5.10;;;6.80;99.90;;;;;;5032684;28;20520;-77
2024/02/02 04:14:56;;;;;;;5.87;5.37;;;6.80;99.90;;;;;;5031646;28;20848;-79
2024/02/02 04:17:24;;;;;;;4.70;4.40;;;6.80;99.90;;;;;;5030240;28;20973;-79
2024/02/02 04:19:52;;;;;;;4.73;4.43;;;6.80;99.90;;;;;;5028410;28;20460;-77
2024/02/02 04:22:20;;;;;;;4.60;4.20;;;6.80;99.90;;;;;;5032453;28;20507;-77
2024/02/02 04:24:50;;;;;;;4.70;4.33;;;6.80;99.90;;;;;;5032503;28;20539;-81
2024/02/02 04:27:18;;;;;;;6.57;5.00;;;6.80;99.90;;;;;;5032251;28;20471;-77
2024/02/02 04:29:46;;;;;;;6.40;4.70;;;6.80;99.90;;;;;;5032964;28;20512;-76
2024/02/02 04:32:15;;;;;;;5.73;5.33;;;6.80;99.90;;;;;;5036813;28;20454;-76
2024/02/02 04:34:43;;;;;;;5.03;4.53;;;6.80;99.90;;;;;;5036405;28;20571;-77
2024/02/02 04:37:11;;;;;;;5.90;5.40;;;6.80;99.90;;;;;;5037729;28;20453;-76
2024/02/02 04:39:39;;;;;;;5.33;4.97;;;6.70;1.00;;;;;;5037641;28;20459;-76
2024/02/02 04:42:09;;;;;;;6.23;5.63;;;6.80;1.00;;;;;;5038516;28;20565;-76
2024/02/02 04:44:37;;;;;;;5.83;5.40;;;6.80;99.90;;;;;;5030896;28;20443;-76
2024/02/02 04:47:05;;;;;;;5.07;4.67;;;6.80;1.00;;;;;;5035980;28;20463;-78
2024/02/02 04:49:34;;;;;;;4.57;4.13;;;6.80;1.00;;;;;;5033723;28;20468;-76
2024/02/02 04:52:02;;;;;;;5.60;5.10;;;6.70;1.00;;;;;;5037321;28;20453;-76
2024/02/02 04:54:30;;;;;;;6.40;4.23;;;6.70;1.00;;;;;;5037131;28;20468;-77
2024/02/02 04:56:58;;;;;;;5.33;4.87;;;6.70;1.00;;;;;;5039363;28;20955;-79
2024/02/02 04:59:28;;;;;;;4.97;4.57;;;6.70;1.00;;;;;;5037723;28;20451;-78
2024/02/02 05:01:57;;;;;;;4.93;4.50;;;6.70;1.00;;;;;;5038675;28;20809;-77
2024/02/02 05:04:25;;;;;;;4.50;4.20;;;6.70;1.00;;;;;;5045395;28;20456;-79
2024/02/02 05:06:54;;;;;;;4.77;4.37;;;6.70;1.00;;;;;;5041299;28;20993;-79
2024/02/02 05:09:22;;;;;;;5.10;4.60;;;6.80;1.00;;;;;;5039328;28;20458;-77
2024/02/02 05:11:50;;;;;;;4.80;4.33;;;6.80;1.00;;;;;;5039558;28;20466;-81
2024/02/02 05:14:18;;;;;;;4.97;4.67;;;6.90;1.00;;;;;;5038862;28;20545;-80
2024/02/02 05:16:48;;;;;;;4.40;4.10;;;6.90;1.00;;;;;;5039717;28;20452;-80
2024/02/02 05:19:16;;;;;;;4.50;3.90;;;6.90;1.00;;;;;;5041023;28;20802;-77
2024/02/02 05:21:44;;;;;;;3.93;3.60;;;7.00;1.00;;;;;;5033889;28;20531;-77
2024/02/02 05:24:13;;;;;;;5.00;4.00;;;7.00;1.00;;;;;;5037164;28;20547;-80
2024/02/02 05:27:01;;;;;;;4.60;4.20;;;7.00;1.00;;;;;;5038960;28;20452;-78
2024/02/02 05:29:29;;;;;;;5.33;4.83;;;7.10;1.00;;;;;;5039996;28;20513;-78
2024/02/02 05:31:59;;;;;;;5.90;5.40;;;7.00;1.00;;;;;;5036381;28;20445;-77
2024/02/02 05:34:27;;;;;;;8.03;7.43;;;7.10;1.00;;;;;;5038042;28;20472;-80
2024/02/02 05:36:56;;;;;;;9.90;9.00;;;7.20;10.10;;;;;;5042598;28;20456;-78
2024/02/02 05:39:24;;;;;;;13.77;12.30;;;7.20;17.30;;;;;;5037403;28;20459;-81
2024/02/02 05:41:52;;;;;;;12.17;11.17;;;7.20;29.30;;;;;;5038192;28;21455;-77
2024/02/02 05:44:20;;;;;;;13.90;10.30;;;7.20;13.30;;;;;;5038013;28;20491;-77
2024/02/02 05:46:48;;;;;;;12.00;11.00;;;7.30;22.80;;;;;;5034611;28;20460;-80
2024/02/02 05:49:18;;;;;;;10.70;9.70;;;7.30;9.30;;;;;;5035362;28;20452;-79
2024/02/02 05:51:47;;;;;;;11.03;9.97;;;7.30;65.60;;;;;;5033332;28;21023;-79
2024/02/02 05:54:15;;;;;;;10.50;9.50;;;7.30;99.60;;;;;;5036580;28;20468;-79
2024/02/02 05:56:43;;;;;;;12.60;10.57;;;7.30;99.90;;;;;;5040597;28;20524;-78
2024/02/02 05:59:11;;;;;;;12.17;8.50;;;7.40;99.90;;;;;;5038472;28;21015;-77
2024/02/02 06:01:39;;;;;;;8.53;7.83;;;7.30;99.90;;;;;;5036355;28;20461;-78
2024/02/02 06:04:08;;;;;;;9.13;8.23;;;7.30;99.90;;;;;;5037107;28;20655;-78
2024/02/02 06:06:38;;;;;;;9.97;8.97;;;7.40;99.90;;;;;;5032954;28;20452;-76
2024/02/02 06:09:09;;;;;;;10.20;8.40;;;7.40;99.90;;;;;;5029875;28;20453;-77
2024/02/02 06:11:38;;;;;;;9.97;9.07;;;7.40;99.90;;;;;;5032595;28;20196;-79
2024/02/02 06:14:06;;;;;;;8.87;8.07;;;7.40;99.90;;;;;;5027782;28;20575;-80
2024/02/02 06:16:34;;;;;;;10.70;9.47;;;7.40;65.90;;;;;;5028949;28;20517;-79
2024/02/02 06:19:02;;;;;;;5.93;5.20;;;7.40;96.70;;;;;;5028621;28;20512;-76
2024/02/02 06:21:31;;;;;;;6.63;6.03;;;7.50;99.90;;;;;;5036543;28;20456;-77
2024/02/02 06:24:00;;;;;;;5.40;4.90;;;7.50;77.70;;;;;;5035899;28;20546;-76
2024/02/02 06:26:29;;;;;;;7.53;5.70;;;7.60;1.00;;;;;;5035434;28;20441;-79
2024/02/02 06:28:57;;;;;;;6.13;5.50;;;7.50;13.40;;;;;;5029065;28;20452;-76
2024/02/02 06:31:26;;;;;;;6.37;5.83;;;7.50;69.80;;;;;;5031313;28;20444;-79
2024/02/02 06:33:54;;;;;;;5.83;5.43;;;7.60;54.30;;;;;;5036055;28;20775;-80
2024/02/02 06:36:24;;;;;;;5.73;5.33;;;7.60;34.80;;;;;;5036637;28;21056;-79
2024/02/02 06:38:53;;;;;;;4.97;4.47;;;7.50;99.90;;;;;;5037769;28;20517;-78
2024/02/02 06:41:22;;;;;;;5.60;5.20;;;7.60;1.00;;;;;;5039101;28;20449;-76
2024/02/02 06:43:51;;;;;;;7.00;6.43;;;7.60;1.00;;;;;;5038211;28;20515;-79
2024/02/02 06:46:20;;;;;;;7.30;6.70;;;7.60;17.20;;;;;;5032118;28;20448;-78
2024/02/02 06:48:49;;;;;;;7.37;6.10;;;7.60;1.00;;;;;;5031457;28;20464;-79
2024/02/02 06:51:18;;;;;;;6.80;6.10;;;7.50;98.60;;;;;;5035810;28;20967;-78
2024/02/02 06:53:46;;;;;;;6.03;5.53;;;7.50;99.90;;;;;;5034958;28;20479;-80
2024/02/02 06:56:38;;;;;;;6.10;5.50;;;7.60;99.90;;;;;;5038727;28;20522;-78
2024/02/02 06:59:06;;;;;;;5.77;5.27;;;7.50;99.90;;;;;;5038909;28;21087;-78
2024/02/02 07:01:35;;;;;;;7.20;6.50;;;7.60;99.90;;;;;;5037551;28;20464;-78
2024/02/02 07:04:04;;;;;;;5.80;5.40;;;7.60;99.90;;;;;;5033711;28;20465;-78
2024/02/02 07:06:33;;;;;;;6.60;6.00;;;7.60;78.60;;;;;;5037305;28;20506;-78
2024/02/02 07:09:06;;;;;;;7.17;5.57;;;7.60;99.90;;;;;;5036209;28;20447;-79
2024/02/02 07:11:56;;;;;;;6.90;6.07;;;7.70;99.90;;;;;;5034652;28;21130;-80
2024/02/02 07:14:46;;;;;;;8.03;6.70;;;7.70;99.90;;;;;;5036365;28;20564;-78
2024/02/02 07:17:23;;;;;;;8.57;6.97;;;7.70;14.60;;;;;;5034980;28;20484;-80
2024/02/02 07:19:52;;;;;;;6.53;5.83;;;7.70;47.30;;;;;;5036341;28;20462;-78
2024/02/02 07:22:32;;;;;;;6.63;6.13;;;7.70;86.40;;;;;;5037576;28;20456;-78
2024/02/02 07:25:00;;;;;;;7.47;6.37;;;7.70;98.80;;;;;;5034696;28;20447;-77
2024/02/02 07:27:49;;;;;;;6.77;6.20;;;7.60;73.40;;;;;;5034289;28;21385;-80
2024/02/02 07:30:54;;;;;;;6.67;6.17;;;7.60;99.90;;;;;;5028468;28;20563;-77
2024/02/02 07:33:25;;;;;;;6.87;6.27;;;7.50;99.90;;;;;;5035667;28;21204;-79
2024/02/02 07:35:57;;;;;;;6.53;6.03;;;7.50;99.90;;;;;;5033951;28;20511;-78
2024/02/02 07:38:43;;;;;;;7.77;6.87;;;7.60;99.90;;;;;;5038672;28;20484;-81
2024/02/02 07:41:13;;;;;;;7.10;6.50;;;7.60;99.90;;;;;;5034988;28;20453;-77
2024/02/02 07:43:43;;;;;;;6.93;6.40;;;7.60;99.90;;;;;;5039754;28;20469;-77
2024/02/02 07:46:11;;;;;;;6.30;5.70;;;7.60;1.00;;;;;;5035908;28;20850;-79
2024/02/02 07:48:43;;;;;;;6.93;6.33;;;7.60;99.90;;;;;;5036898;28;20466;-78
2024/02/02 07:51:12;;;;;;;7.03;6.53;;;7.60;1.00;;;;;;5038421;28;21156;-78
2024/02/02 07:53:40;;;;;;;8.30;7.20;;;7.60;99.90;;;;;;5033017;28;20475;-80
2024/02/02 07:56:09;;;;;;;8.00;7.17;;;7.70;1.00;;;;;;5038703;28;20476;-78
2024/02/02 07:58:39;;;;;;;7.13;6.53;;;7.60;1.00;;;;;;5033051;28;20543;-78
2024/02/02 08:01:10;;;;;;;6.63;5.50;;;7.60;1.00;;;;;;5021307;28;20539;-77
2024/02/02 08:03:38;;;;;;;7.73;6.90;;;7.70;1.00;;;;;;5026490;28;21079;-77
2024/02/02 08:06:08;;;;;;;6.53;6.00;;;7.80;1.00;;;;;;5029392;28;20483;-79
2024/02/02 08:08:37;;;;;;;6.60;6.10;;;7.80;1.00;;;;;;5029646;28;20486;-79
2024/02/02 08:11:05;;;;;;;7.33;6.70;;;7.90;1.00;;;;;;5029943;28;20831;-81
2024/02/02 08:13:34;;;;;;;7.47;6.87;;;7.80;99.90;;;;;;5030525;28;20459;-79
2024/02/02 08:16:03;;;;;;;6.37;5.87;;;7.70;1.00;;;;;;5028648;28;21092;-77
2024/02/02 08:18:33;;;;;;;6.23;5.83;;;7.80;1.00;;;;;;5030759;28;20452;-77
2024/02/02 08:21:02;;;;;;;7.17;6.47;;;7.80;1.00;;;;;;5032857;28;20461;-79
2024/02/02 08:23:32;;;;;;;6.80;6.20;;;7.90;1.00;;;;;;5034133;28;20483;-79
2024/02/02 08:26:02;;;;;;;6.70;6.10;;;7.90;1.00;;;;;;5030026;28;20936;-77
2024/02/02 08:28:30;;;;;;;5.67;5.17;;;7.90;1.00;;;;;;5029230;28;21264;-81
2024/02/02 08:31:12;;;;;;;7.47;6.77;;;8.00;1.00;;;;;;5036201;28;20514;-77
2024/02/02 08:33:43;;;;;;;6.23;5.77;;;7.90;99.90;;;;;;5039115;28;20495;-78
2024/02/02 08:36:12;;;;;;;5.80;5.33;;;8.00;1.00;;;;;;5039520;28;20537;-81
2024/02/02 08:38:41;;;;;;;7.00;6.50;;;8.00;99.90;;;;;;5040747;28;20447;-77
2024/02/02 08:41:09;;;;;;;6.27;5.77;;;8.00;1.00;;;;;;5038856;28;20564;-77
2024/02/02 08:43:39;;;;;;;6.00;5.60;;;8.10;99.90;;;;;;5041188;28;20487;-77
2024/02/02 08:46:10;;;;;;;7.23;6.17;;;8.10;99.90;;;;;;5036380;28;20460;-78
2024/02/02 08:48:42;;;;;;;6.83;6.43;;;8.10;99.90;;;;;;5039060;28;20585;-78
2024/02/02 08:51:46;;;;;;;6.70;6.20;;;8.10;99.90;;;;;;5042094;28;20459;-80
2024/02/02 08:54:34;;;;;;;6.70;6.20;;;8.10;99.90;;;;;;5038845;28;20476;-79
2024/02/02 08:57:46;;;;;;;6.87;6.20;;;8.10;1.00;;;;;;5037922;28;20465;-79
2024/02/02 09:00:18;;;;;;;6.60;6.10;;;8.10;99.90;;;;;;5039495;28;20521;-78
2024/02/02 09:02:55;;;;;;;6.10;5.63;;;8.20;99.90;;;;;;5042165;28;20570;-79
2024/02/02 09:05:35;;;;;;;5.47;5.07;;;8.10;99.90;;;;;;5039367;28;20459;-79
2024/02/02 09:08:10;;;;;;;4.93;4.63;;;8.10;1.00;;;;;;5040763;28;20825;-79
2024/02/02 09:11:15;;;;;;;7.47;6.90;;;8.20;1.00;;;;;;5038160;28;20452;-80
2024/02/02 09:13:45;;;;;;;5.63;5.03;;;8.30;99.90;;;;;;5037452;28;20471;-77
2024/02/02 09:16:15;;;;;;;5.47;5.07;;;8.30;99.90;;;;;;5037203;28;20946;-77
2024/02/02 09:18:45;;;;;;;5.17;4.77;;;8.20;99.90;;;;;;5039698;28;20514;-77
2024/02/02 09:21:20;;;;;;;5.93;5.53;;;8.30;99.90;;;;;;5038429;28;20547;-79
2024/02/02 09:23:50;;;;;;;5.60;5.20;;;8.30;99.90;;;;;;5042877;28;20467;-79
2024/02/02 09:26:31;;;;;;;5.80;5.40;;;8.30;99.90;;;;;;5037344;28;21072;-79
2024/02/02 09:29:01;;;;;;;5.80;5.30;;;8.40;99.90;;;;;;5038732;28;20538;-77
2024/02/02 09:31:35;;;;;;;7.50;5.80;;;8.40;99.90;;;;;;5039372;28;20468;-78
2024/02/02 09:34:08;;;;;;;5.30;4.90;;;8.40;61.10;;;;;;5037782;28;20562;-77
2024/02/02 09:36:39;;;;;;;5.60;5.30;;;8.40;75.80;;;;;;5038734;28;20480;-77
2024/02/02 09:39:42;;;;;;;5.93;5.47;;;8.50;25.60;;;;;;5035920;28;20535;-77
2024/02/02 09:42:36;;;;;;;5.50;5.20;;;8.50;23.30;;;;;;5037080;28;20459;-77
2024/02/02 09:45:11;;;;;;;5.47;5.00;;;8.50;1.00;;;;;;5038442;28;20452;-77
2024/02/02 09:48:09;;;;;;;5.43;5.03;;;8.50;1.00;;;;;;5037044;28;20483;-77
2024/02/02 09:50:48;;;;;;;6.37;5.77;;;8.50;1.00;;;;;;5040943;28;20466;-79
2024/02/02 09:53:38;;;;;;;5.80;5.40;;;8.50;1.00;;;;;;5039151;28;21041;-79
2024/02/02 09:56:11;;;;;;;5.20;4.80;;;8.50;1.00;;;;;;5037430;28;20448;-77
2024/02/02 09:58:48;;;;;;;6.80;4.80;;;8.50;1.00;;;;;;5039776;28;20460;-80
2024/02/02 10:01:27;;;;;;;5.47;5.07;;;8.60;1.00;;;;;;5037978;28;20453;-79
2024/02/02 10:04:06;;;;;;;5.23;4.83;;;8.60;1.00;;;;;;5036598;28;20602;-78
2024/02/02 10:06:47;;;;;;;5.40;5.10;;;8.60;99.90;;;;;;5038948;28;20473;-78
2024/02/02 10:09:42;;;;;;;5.07;4.77;;;8.60;1.00;;;;;;5039853;28;20470;-78
2024/02/02 10:12:20;;;;;;;5.30;4.90;;;8.60;99.90;;;;;;5037405;28;20498;-77
2024/02/02 10:15:23;;;;;;;4.73;4.50;;;8.70;99.90;;;;;;5039663;28;20464;-77
2024/02/02 10:18:11;;;;;;;4.93;4.63;;;8.60;1.00;;;;;;5035439;28;20587;-78
2024/02/02 10:20:46;;;;;;;5.20;4.90;;;8.70;99.90;;;;;;5040084;28;20552;-77
2024/02/02 10:23:50;;;;;;;5.57;5.03;;;8.80;99.90;;;;;;5036325;28;20479;-79
2024/02/02 10:26:36;;;;;;;5.40;4.90;;;8.80;99.90;;;;;;5013678;28;20464;-78
2024/02/02 10:29:16;;;;;;;5.27;4.97;;;8.80;99.90;;;;;;5035679;28;21256;-80
2024/02/02 10:32:02;;;;;;;5.70;5.40;;;8.80;99.90;;;;;;5035644;28;20467;-80
2024/02/02 10:34:43;;;;;;;4.40;4.20;;;8.80;99.90;;;;;;5037054;28;20814;-77
2024/02/02 10:37:28;;;;;;;5.43;5.03;;;9.00;99.90;;;;;;5033550;28;21055;-82
2024/02/02 10:40:13;;;;;;;4.87;4.57;;;10.20;99.90;;;;;;5037364;28;21126;-78
2024/02/02 10:42:54;;;;;;;5.43;5.03;;;10.50;1.00;;;;;;5038027;28;20499;-78
2024/02/02 10:45:33;;;;;;;4.20;4.00;;;10.80;1.00;;;;;;5038603;28;20480;-80
2024/02/02 10:48:20;;;;;;;4.80;4.50;;;11.70;1.00;;;;;;5034228;28;20452;-80
2024/02/02 10:50:55;;;;;;;5.00;4.70;;;13.80;99.90;;;;;;5036640;28;20559;-82
2024/02/02 10:53:34;;;;;;;5.03;4.63;;;13.60;99.90;;;;;;5038035;28;21167;-80
2024/02/02 10:56:14;;;;;;;4.73;4.53;;;13.50;99.90;;;;;;5035622;28;21293;-77
2024/02/02 10:59:03;;;;;;;4.47;4.17;;;15.00;99.90;;;;;;5035455;28;20473;-80
2024/02/02 11:01:41;;;;;;;4.13;3.77;;;17.40;99.90;;;;;;5033911;28;20958;-80
2024/02/02 11:04:16;;;;;;;5.07;4.77;;;16.50;99.90;;;;;;5037015;28;20632;-78
2024/02/02 11:06:53;;;;;;;4.60;4.30;;;15.10;99.90;;;;;;5036375;28;20483;-77
2024/02/02 11:09:31;;;;;;;4.30;4.10;;;15.60;99.90;;;;;;5036785;28;20444;-77
2024/02/02 11:12:10;;;;;;;4.07;3.80;;;16.00;99.90;;;;;;5036317;28;20448;-78
2024/02/02 11:14:46;;;;;;;3.70;3.50;;;15.80;99.90;;;;;;5035901;28;20510;-77
2024/02/02 11:17:24;;;;;;;3.57;3.37;;;15.80;99.90;;;;;;5035018;28;20455;-78
2024/02/02 11:20:14;;;;;;;4.70;4.00;;;15.10;99.90;;;;;;5032941;28;20467;-82
2024/02/02 11:22:49;;;;;;;3.03;2.93;;;14.90;99.90;;;;;;5029376;28;20487;-79
2024/02/02 11:25:24;;;;;;;3.40;3.20;;;15.20;99.90;;;;;;5033391;28;21039;-79
2024/02/02 11:28:01;;;;;;;3.07;2.97;;;15.70;99.90;;;;;;5031808;28;20466;-79
2024/02/02 11:30:42;;;;;;;3.30;3.10;;;15.90;99.90;;;;;;5031289;28;20538;-78
2024/02/02 11:33:23;;;;;;;2.63;2.53;;;16.10;99.90;;;;;;5032211;28;21015;-77
2024/02/02 11:36:03;;;;;;;3.70;3.40;;;17.10;99.90;;;;;;5033247;28;20618;-78
2024/02/02 11:38:45;;;;;;;2.97;2.77;;;17.10;99.90;;;;;;5032471;28;20573;-78
2024/02/02 11:41:19;;;;;;;2.70;2.60;;;16.50;99.90;;;;;;5030534;28;20461;-81
2024/02/02 11:43:48;;;;;;;2.60;2.50;;;15.30;99.90;;;;;;5033681;28;20495;-80
2024/02/02 11:46:22;;;;;;;2.80;2.70;;;14.60;99.90;;;;;;5032882;28;20461;-79
2024/02/02 11:48:54;;;;;;;2.77;2.67;;;14.20;99.90;;;;;;5031786;28;20952;-79
2024/02/02 11:51:23;;;;;;;11.60;4.27;;;13.80;99.90;;;;;;5033077;28;20464;-77
2024/02/02 11:54:01;;;;;;;5.77;3.20;;;13.40;99.90;;;;;;5032000;28;20486;-77
2024/02/02 11:56:35;;;;;;;4.63;3.60;;;13.40;99.90;;;;;;5035414;28;20551;-77
2024/02/02 11:59:09;;;;;;;5.00;3.90;;;13.40;99.90;;;;;;5033945;28;20486;-77
2024/02/02 12:01:50;;;;;;;4.20;3.90;;;13.40;99.90;;;;;;5033620;28;20451;-82
2024/02/02 12:04:32;;;;;;;2.63;2.50;;;13.40;99.90;;;;;;5030753;28;20487;-80
2024/02/02 12:07:12;;;;;;;2.83;2.73;;;13.20;99.90;;;;;;5031526;28;20479;-78
2024/02/02 12:09:45;;;;;;;2.57;2.47;;;13.00;99.90;;;;;;5037683;28;20556;-77
2024/02/02 12:12:17;;;;;;;2.43;2.33;;;12.90;99.90;;;;;;5035889;28;20861;-77
2024/02/02 12:14:50;;;;;;;2.80;2.60;;;12.90;99.90;;;;;;5041196;28;20452;-78
2024/02/02 12:17:21;;;;;;;2.33;2.23;;;13.00;99.90;;;;;;5039993;28;20460;-78
2024/02/02 12:19:50;;;;;;;2.00;1.90;;;12.90;99.90;;;;;;5037429;28;20633;-78
2024/02/02 12:22:19;;;;;;;2.57;2.47;;;12.90;99.90;;;;;;5040226;28;20488;-80
2024/02/02 12:24:48;;;;;;;2.03;1.93;;;13.10;99.90;;;;;;5037561;28;21269;-77
2024/02/02 12:27:16;;;;;;;2.47;2.27;;;13.00;99.90;;;;;;5038874;28;20459;-80
2024/02/02 12:29:44;;;;;;;2.40;2.20;;;12.90;99.90;;;;;;5038830;28;20698;-77
2024/02/02 12:32:13;;;;;;;2.37;2.17;;;12.90;99.90;;;;;;5041271;28;20452;-78
2024/02/02 12:34:42;;;;;;;2.30;2.20;;;13.00;99.90;;;;;;5038845;28;20473;-77
2024/02/02 12:37:12;;;;;;;2.03;1.93;;;13.00;99.90;;;;;;5039908;28;21401;-78
2024/02/02 12:39:41;;;;;;;2.50;2.40;;;13.00;99.90;;;;;;5039433;28;20511;-79
2024/02/02 12:42:11;;;;;;;2.40;2.30;;;12.70;99.90;;;;;;5039000;28;20488;-77
2024/02/02 12:44:40;;;;;;;2.20;2.10;;;12.80;99.90;;;;;;5040975;28;20460;-79
2024/02/02 12:47:08;;;;;;;2.00;1.90;;;12.80;99.90;;;;;;5038530;28;20448;-78
2024/02/02 12:49:37;;;;;;;2.20;2.10;;;12.90;99.90;;;;;;5038983;28;20467;-78
2024/02/02 12:52:07;;;;;;;2.50;2.40;;;12.90;99.90;;;;;;5035273;28;20452;-77
2024/02/02 12:54:35;;;;;;;2.50;2.40;;;12.80;99.90;;;;;;5035596;28;20463;-81
2024/02/02 12:57:05;;;;;;;1.90;1.80;;;12.70;99.90;;;;;;5036540;28;20466;-77
2024/02/02 12:59:34;;;;;;;2.20;2.10;;;12.60;99.90;;;;;;5035306;28;20972;-79
2024/02/02 13:02:02;;;;;;;2.10;2.00;;;12.70;99.90;;;;;;5038395;28;20537;-79
2024/02/02 13:04:31;;;;;;;2.03;1.93;;;12.60;99.90;;;;;;5037896;28;20483;-77
2024/02/02 13:07:00;;;;;;;2.37;2.10;;;12.60;99.90;;;;;;5038295;28;20455;-79
2024/02/02 13:09:32;;;;;;;2.10;2.00;;;12.30;99.90;;;;;;5037782;28;20449;-77
2024/02/02 13:12:01;;;;;;;2.40;2.30;;;12.20;99.90;;;;;;5036827;28;20463;-77
2024/02/02 13:14:32;;;;;;;1.70;1.70;;;12.30;99.90;;;;;;5036757;28;20479;-79
2024/02/02 13:17:08;;;;;;;2.27;2.10;;;12.30;99.90;;;;;;5040807;28;20965;-79
2024/02/02 13:19:38;;;;;;;1.90;1.80;;;12.30;99.90;;;;;;5038654;28;20993;-80
2024/02/02 13:22:17;;;;;;;1.77;1.73;;;12.40;99.90;;;;;;5039753;28;20457;-80
2024/02/02 13:24:49;;;;;;;2.10;2.00;;;12.50;99.90;;;;;;5039306;28;20456;-78